Athens Ben Epps Airport
KAHN : now visible

Airfield :











YOU CAN JOIN US ON...

 
LOGIN :

Register | Disclaimer

   EN    FR    IT 

 









Legend :    VFR   Marginal VFR   IFR   Intensive IFR   Very Intensive IFR
Visi :
Ceiling :
>= 8 km
>= 3000ft
5 to 8 km
1000 to 3000 ft
1500m to 5 km
500 to 1000 ft
800 to 1500m
200 to 500 ft
< 800m
< 200 ft
Symbols :   Thunderstorms  Fog  Heavy snow  Heavy precipitations  Wind > 20 kt






- Airport Elevation : 808 ft
- IATA code : AHN


KAHN - Athens Ben Epps

CURRENT METAR :
  • 112051Z VRB04KT 10SM CLR 34/22 A2995 RMK AO2 LTG DSNT NE AND E SLP134 T03390217 57025

EXPIRED METARs :
  • 111951Z VRB03KT 10SM CLR 33/22 A2998 RMK AO2 LTG DSNT SE SLP142 T03330217
  • 111851Z VRB03KT 10SM CLR 33/22 A3001 RMK AO2 LTG DSNT SE SLP151 T03330222

TAF KAHN
Valid from the 11 at 18:00 until the 12 at 18:00 UTC


111725Z 1118/1218 29004KT P6SM VCSH SCT040 SCT120
FM120000 33003KT P6SM SCT050 SCT120
FM121000 VRB03KT 6SM BR FEW010
FM121400 04003KT P6SM FEW035
KZTL FIR / North America



MET'MAP, your aeronautical weather chart ! - Copyright ORBIFLY December 2007 - Disclaimer

ORBIFLY MET'MAP TEAM :

Programming & Development : Alexandra Zaïnal
Concept & original design : Baudouin d'Aumeries
Assistance for programming : Marc-Olivier Méhu
Technical & hardware support : Manuel Goepfert

Contact : metmap@orbifly.com




SOURCES & CREDITS :

   NOAA       Earth
Advisory